Time;durP1;ratioP1;P1;durP2;ratioP2;P2;SDS_P1;SDS_P2;PMS_P1;PMS_P2;Temp;Humidity;BMP_temperature;BMP_pressure;BME280_temperature;BME280_humidity;BME280_pressure;Samples;Min_cycle;Max_cycle;Signal;HPM_P1;HPM_P2
2021/04/07 00:00:07;;;;;;;;;;;;;;;6.78;52.17;100199.13;5051045;28;98032;-83
2021/04/07 00:02:34;;;;;;;;;;;;;;;6.32;53.20;100204.78;5048080;27;96738;-83
2021/04/07 00:05:01;;;;;;;;;;;;;;;6.93;51.80;100202.22;5033750;27;97291;-82
2021/04/07 00:07:27;;;;;;;;;;;;;;;6.40;52.37;100200.22;5038233;28;99363;-82
2021/04/07 00:09:54;;;;;;;;;;;;;;;6.49;52.50;100196.47;5034110;28;98053;-83
2021/04/07 00:12:23;;;;;;;;;;;;;;;6.52;52.42;100200.75;5038134;28;97467;-83
2021/04/07 00:14:49;;;;;;;;;;;;;;;6.69;52.54;100198.56;5020989;28;97058;-82
2021/04/07 00:17:15;;;;;;;;;;;;;;;6.43;52.50;100201.03;5038008;27;101019;-82
2021/04/07 00:19:42;;;;;;;;;;;;;;;6.85;51.82;100202.44;5033564;28;101357;-83
2021/04/07 00:22:08;;;;;;;;;;;;;;;6.33;53.29;100196.03;5035826;28;96802;-82
2021/04/07 00:24:34;;;;;;;;;;;;;;;6.36;53.34;100203.81;5022003;28;96915;-83
2021/04/07 00:27:06;;;;;;;;;;;;;;;6.58;52.97;100201.47;5037922;28;98839;-84
2021/04/07 00:29:32;;;;;;;;;;;;;;;6.75;52.48;100198.38;5043305;28;99485;-83
2021/04/07 00:31:58;;;;;;;;;;;;;;;6.72;52.09;100204.56;5038541;27;96875;-83
2021/04/07 00:34:24;;;;;;;;;;;;;;;6.12;53.08;100206.22;5041003;28;97231;-82
2021/04/07 00:36:51;;;;;;;;;;;;;;;6.57;52.34;100207.59;5040295;28;99048;-81
2021/04/07 00:39:17;;;;;;;;;;;;;;;6.40;52.84;100207.22;5037284;28;99419;-82
2021/04/07 00:41:43;;;;;;;;;;;;;;;6.70;52.49;100216.00;5029215;27;98539;-83
2021/04/07 00:44:12;;;;;;;;;;;;;;;6.72;51.89;100214.19;5030662;28;96768;-83
2021/04/07 00:46:38;;;;;;;;;;;;;;;6.66;52.34;100210.00;5033281;28;98858;-83
2021/04/07 00:49:04;;;;;;;;;;;;;;;6.37;52.66;100209.91;5040626;27;100428;-82
2021/04/07 00:51:30;;;;;;;;;;;;;;;6.80;51.88;100217.47;5025565;28;97393;-83
2021/04/07 00:53:57;;;;;;;;;;;;;;;6.63;52.14;100220.56;5032015;28;96698;-82
2021/04/07 00:56:25;;;;;;;;;;;;;;;6.78;51.69;100222.75;5022231;27;100293;-83
2021/04/07 00:58:51;;;;;;;;;;;;;;;6.55;51.88;100222.56;5037069;28;101716;-81
2021/04/07 01:01:16;;;;;;;;;;;;;;;6.61;51.55;100222.38;5040288;28;96665;-83
2021/04/07 01:03:44;;;;;;;;;;;;;;;6.94;50.95;100232.84;5024694;27;96779;-83
2021/04/07 01:06:09;;;;;;;;;;;;;;;6.87;51.24;100228.66;5037739;28;99080;-83
2021/04/07 01:08:35;;;;;;;;;;;;;;;6.69;51.67;100228.28;5038558;27;97878;-84
2021/04/07 01:11:04;;;;;;;;;;;;;;;6.70;51.48;100227.38;5038308;28;96915;-83
2021/04/07 01:13:30;;;;;;;;;;;;;;;6.80;51.18;100225.34;5038826;28;97817;-83
2021/04/07 01:15:56;;;;;;;;;;;;;;;6.23;52.76;100233.91;5020300;27;98904;-82
2021/04/07 01:18:22;;;;;;;;;;;;;;;6.53;51.86;100229.59;5041399;27;98480;-82
2021/04/07 01:20:48;;;;;;;;;;;;;;;6.68;51.58;100234.44;5038050;28;96712;-82
2021/04/07 01:23:15;;;;;;;;;;;;;;;6.64;51.32;100242.44;5027558;28;97455;-83
2021/04/07 01:25:42;;;;;;;;;;;;;;;6.56;52.10;100233.91;5032739;28;100224;-83
2021/04/07 01:28:08;;;;;;;;;;;;;;;6.44;52.45;100236.84;5040139;27;99179;-81
2021/04/07 01:30:46;;;;;;;;;;;;;;;6.00;53.48;100234.47;5030223;28;97914;-82
2021/04/07 01:33:17;;;;;;;;;;;;;;;5.90;53.94;100247.88;5038582;28;96878;-81
2021/04/07 01:35:43;;;;;;;;;;;;;;;6.30;53.05;100238.06;5040355;28;101842;-82
2021/04/07 01:38:09;;;;;;;;;;;;;;;6.71;51.53;100238.72;5037322;27;100168;-82
2021/04/07 01:40:37;;;;;;;;;;;;;;;6.89;51.16;100240.88;5036237;28;97224;-83
2021/04/07 01:43:04;;;;;;;;;;;;;;;6.78;51.22;100241.16;5041786;27;96814;-82
2021/04/07 01:45:30;;;;;;;;;;;;;;;6.51;51.89;100241.91;5031399;27;99982;-82
2021/04/07 01:47:56;;;;;;;;;;;;;;;6.33;52.87;100242.38;5030780;28;99772;-81
2021/04/07 01:50:22;;;;;;;;;;;;;;;6.43;52.82;100243.03;5029566;27;96682;-82
2021/04/07 01:52:48;;;;;;;;;;;;;;;6.83;51.88;100237.56;5031732;28;96904;-83
2021/04/07 01:55:14;;;;;;;;;;;;;;;6.14;53.54;100246.38;5037353;28;99462;-83
2021/04/07 01:57:40;;;;;;;;;;;;;;;6.32;52.72;100238.03;5034207;27;98727;-82
2021/04/07 02:00:09;;;;;;;;;;;;;;;6.32;52.46;100248.53;5035361;27;96609;-82
2021/04/07 02:02:34;;;;;;;;;;;;;;;6.50;52.06;100244.59;5017986;28;97783;-82
2021/04/07 02:05:00;;;;;;;;;;;;;;;6.49;51.47;100248.09;5038482;28;100960;-81
2021/04/07 02:07:26;;;;;;;;;;;;;;;6.52;51.74;100248.00;5046065;28;99120;-82
2021/04/07 02:09:52;;;;;;;;;;;;;;;6.69;51.10;100240.56;5038526;27;96689;-82
2021/04/07 02:12:18;;;;;;;;;;;;;;;5.71;53.28;100272.78;5039323;27;96720;-82
2021/04/07 02:14:44;;;;;;;;;;;;;;;5.96;52.42;100259.06;5036452;28;98436;-83
2021/04/07 02:17:11;;;;;;;;;;;;;;;5.70;53.71;100271.03;5034901;27;100299;-83
2021/04/07 02:19:37;;;;;;;;;;;;;;;5.98;53.53;100267.75;5025852;27;96705;-82
2021/04/07 02:22:07;;;;;;;;;;;;;;;6.50;51.87;100266.41;5024337;27;96777;-83
2021/04/07 02:24:33;;;;;;;;;;;;;;;6.45;51.83;100272.69;5035905;28;97856;-83
2021/04/07 02:27:00;;;;;;;;;;;;;;;6.43;51.79;100277.16;5020709;28;101076;-83
2021/04/07 02:29:26;;;;;;;;;;;;;;;6.56;51.23;100276.78;5026378;27;97151;-82
2021/04/07 02:31:52;;;;;;;;;;;;;;;6.15;52.39;100279.59;5033891;28;96806;-82
2021/04/07 02:34:19;;;;;;;;;;;;;;;5.59;53.47;100284.38;5024897;28;100192;-83
2021/04/07 02:36:45;;;;;;;;;;;;;;;5.98;53.64;100283.47;5035501;27;98900;-82
2021/04/07 02:39:11;;;;;;;;;;;;;;;6.51;52.51;100273.41;5036564;28;97037;-81
2021/04/07 02:41:37;;;;;;;;;;;;;;;7.00;51.08;100282.56;5035712;27;98855;-82
2021/04/07 02:44:03;;;;;;;;;;;;;;;6.72;52.02;100287.72;5036436;28;98538;-82
2021/04/07 02:46:29;;;;;;;;;;;;;;;6.65;52.28;100291.41;5032495;28;98118;-82
2021/04/07 02:48:55;;;;;;;;;;;;;;;6.86;50.99;100284.72;5039672;28;97062;-82
2021/04/07 02:51:22;;;;;;;;;;;;;;;6.43;52.02;100285.03;5039233;27;96878;-82
2021/04/07 02:53:48;;;;;;;;;;;;;;;6.55;51.82;100280.31;5037754;28;98669;-82
2021/04/07 02:56:13;;;;;;;;;;;;;;;6.62;51.63;100276.63;5038716;27;102050;-82
2021/04/07 02:58:39;;;;;;;;;;;;;;;6.71;51.22;100283.38;5033107;27;97934;-81
2021/04/07 03:01:05;;;;;;;;;;;;;;;6.28;52.26;100286.25;5035777;27;97783;-82
2021/04/07 03:03:31;;;;;;;;;;;;;;;5.93;52.97;100285.34;5037613;28;98187;-81
2021/04/07 03:05:57;;;;;;;;;;;;;;;6.26;53.09;100282.81;5037496;27;98424;-83
2021/04/07 03:08:24;;;;;;;;;;;;;;;6.22;52.94;100286.41;5029946;28;96762;-82
2021/04/07 03:10:50;;;;;;;;;;;;;;;6.61;51.59;100288.00;5031501;28;97328;-82
2021/04/07 03:13:18;;;;;;;;;;;;;;;6.34;51.87;100291.34;5019659;28;96850;-83
2021/04/07 03:15:44;;;;;;;;;;;;;;;6.44;52.40;100287.56;5033316;27;100944;-83
2021/04/07 03:18:09;;;;;;;;;;;;;;;6.59;51.66;100292.44;5038020;28;96949;-83
2021/04/07 03:20:35;;;;;;;;;;;;;;;6.61;51.41;100290.66;5040828;27;96899;-82
2021/04/07 03:23:01;;;;;;;;;;;;;;;6.58;51.67;100285.47;5040713;27;99952;-82
2021/04/07 03:25:28;;;;;;;;;;;;;;;6.68;51.42;100286.09;5035984;27;98083;-82
2021/04/07 03:27:54;;;;;;;;;;;;;;;6.65;51.41;100297.53;5041280;27;96975;-82
2021/04/07 03:30:20;;;;;;;;;;;;;;;6.69;51.39;100295.69;5039853;27;96801;-82
2021/04/07 03:32:46;;;;;;;;;;;;;;;6.42;52.15;100299.91;5039179;28;98087;-83
2021/04/07 03:35:12;;;;;;;;;;;;;;;6.53;52.45;100303.09;5038600;27;101317;-83
2021/04/07 03:37:38;;;;;;;;;;;;;;;6.63;51.82;100298.50;5040710;27;96651;-83
2021/04/07 03:40:05;;;;;;;;;;;;;;;6.73;51.64;100298.19;5042261;28;97174;-83
2021/04/07 03:42:31;;;;;;;;;;;;;;;6.57;51.91;100298.63;5042136;28;98044;-83
2021/04/07 03:44:57;;;;;;;;;;;;;;;6.59;51.88;100296.81;5040304;27;101003;-82
2021/04/07 03:47:23;;;;;;;;;;;;;;;6.36;52.61;100310.56;5038229;28;96745;-82
2021/04/07 03:49:49;;;;;;;;;;;;;;;6.31;52.58;100310.66;5041886;27;96889;-82
2021/04/07 03:52:15;;;;;;;;;;;;;;;6.92;51.31;100316.06;5039939;27;98048;-83
2021/04/07 03:54:43;;;;;;;;;;;;;;;6.55;51.16;100317.06;5035246;28;101969;-82
2021/04/07 03:57:09;;;;;;;;;;;;;;;6.44;52.20;100324.31;5021579;28;96819;-82
2021/04/07 03:59:36;;;;;;;;;;;;;;;6.24;52.71;100323.94;5025696;28;96767;-83
2021/04/07 04:02:02;;;;;;;;;;;;;;;6.28;52.61;100328.25;5028439;28;101196;-82
2021/04/07 04:04:28;;;;;;;;;;;;;;;6.03;53.66;100337.59;5038272;27;98934;-82
2021/04/07 04:06:54;;;;;;;;;;;;;;;6.39;52.37;100339.34;5038187;27;96705;-83
2021/04/07 04:09:20;;;;;;;;;;;;;;;6.56;52.67;100333.69;5024928;27;96925;-83
2021/04/07 04:11:46;;;;;;;;;;;;;;;6.27;53.10;100339.63;5039676;28;98146;-83
2021/04/07 04:14:12;;;;;;;;;;;;;;;6.59;51.28;100336.19;5024339;27;100958;-83
2021/04/07 04:16:41;;;;;;;;;;;;;;;6.24;52.87;100342.31;5038845;28;96710;-82
2021/04/07 04:19:07;;;;;;;;;;;;;;;6.62;51.61;100338.75;5040331;27;96905;-83
2021/04/07 04:21:33;;;;;;;;;;;;;;;6.19;52.97;100344.19;5039154;28;99524;-83
2021/04/07 04:23:59;;;;;;;;;;;;;;;6.26;53.03;100353.66;5037396;28;101421;-82
2021/04/07 04:26:25;;;;;;;;;;;;;;;6.13;53.23;100352.22;5038350;28;97706;-82
2021/04/07 04:28:51;;;;;;;;;;;;;;;6.31;53.14;100360.50;5037794;27;96748;-83
2021/04/07 04:31:17;;;;;;;;;;;;;;;6.33;52.62;100358.72;5033729;28;98954;-82
2021/04/07 04:33:44;;;;;;;;;;;;;;;6.33;52.76;100361.34;5034057;27;96711;-82
2021/04/07 04:36:10;;;;;;;;;;;;;;;6.22;52.52;100370.38;5033310;28;97048;-82
2021/04/07 04:38:36;;;;;;;;;;;;;;;6.40;52.46;100369.94;5036254;28;98369;-83
2021/04/07 04:41:05;;;;;;;;;;;;;;;6.58;52.08;100376.47;5038030;28;99431;-82
2021/04/07 04:43:31;;;;;;;;;;;;;;;6.35;52.60;100379.69;5032308;27;98000;-82
2021/04/07 04:45:57;;;;;;;;;;;;;;;6.32;52.79;100374.50;5024627;28;97070;-82
2021/04/07 04:48:23;;;;;;;;;;;;;;;6.07;52.67;100371.59;5032655;27;96802;-82
2021/04/07 04:50:49;;;;;;;;;;;;;;;6.26;51.87;100382.50;5029227;28;100903;-81
2021/04/07 04:53:15;;;;;;;;;;;;;;;6.75;50.80;100390.06;5037407;27;99162;-82
2021/04/07 04:55:41;;;;;;;;;;;;;;;6.37;52.17;100391.84;5025371;27;96748;-82
2021/04/07 04:58:07;;;;;;;;;;;;;;;6.73;51.20;100392.72;5022081;28;96625;-82
2021/04/07 05:00:33;;;;;;;;;;;;;;;6.99;50.84;100396.44;5023641;28;97978;-82
2021/04/07 05:02:59;;;;;;;;;;;;;;;6.92;50.28;100397.50;5024381;28;98182;-82
2021/04/07 05:05:25;;;;;;;;;;;;;;;6.93;50.15;100399.22;5029876;28;96702;-82
2021/04/07 05:07:52;;;;;;;;;;;;;;;5.78;52.58;100393.16;5039396;27;96764;-85
2021/04/07 05:10:18;;;;;;;;;;;;;;;6.10;52.56;100413.50;5041840;28;98315;-82
2021/04/07 05:12:43;;;;;;;;;;;;;;;5.89;52.90;100400.84;5041330;28;97951;-81
2021/04/07 05:15:10;;;;;;;;;;;;;;;5.80;53.60;100416.75;5041030;28;96659;-81
2021/04/07 05:17:36;;;;;;;;;;;;;;;6.38;52.15;100419.81;5039005;28;96749;-81
2021/04/07 05:20:03;;;;;;;;;;;;;;;6.52;51.81;100419.50;5027694;28;96987;-81
2021/04/07 05:22:29;;;;;;;;;;;;;;;6.50;51.14;100423.06;5036133;27;98226;-81
2021/04/07 05:24:56;;;;;;;;;;;;;;;6.89;50.67;100429.09;5022242;27;97559;-81
2021/04/07 05:27:22;;;;;;;;;;;;;;;6.89;50.36;100431.72;5038642;27;96779;-83
2021/04/07 05:29:48;;;;;;;;;;;;;;;7.05;50.16;100435.69;5041833;27;97265;-83
2021/04/07 05:32:14;;;;;;;;;;;;;;;6.23;51.22;100437.69;5043570;27;101358;-82
2021/04/07 05:34:40;;;;;;;;;;;;;;;6.65;50.59;100448.94;5037348;28;96684;-83
2021/04/07 05:37:05;;;;;;;;;;;;;;;6.78;50.35;100445.97;5037528;27;97576;-81
2021/04/07 05:39:31;;;;;;;;;;;;;;;7.03;50.08;100451.47;5034528;27;98692;-82
2021/04/07 05:41:58;;;;;;;;;;;;;;;6.62;50.70;100454.28;5037128;28;98531;-83
2021/04/07 05:44:24;;;;;;;;;;;;;;;6.83;50.14;100455.53;5037385;27;96916;-82
2021/04/07 05:46:50;;;;;;;;;;;;;;;6.26;51.70;100461.22;5038718;28;97053;-82
2021/04/07 05:49:16;;;;;;;;;;;;;;;6.29;51.90;100453.31;5040447;28;100898;-83
2021/04/07 05:51:42;;;;;;;;;;;;;;;6.49;50.95;100469.47;5036718;27;98026;-82
2021/04/07 05:54:08;;;;;;;;;;;;;;;6.21;51.75;100461.34;5033258;27;97130;-82
2021/04/07 05:56:35;;;;;;;;;;;;;;;6.34;51.31;100468.03;5032539;28;96557;-82
2021/04/07 05:59:02;;;;;;;;;;;;;;;6.75;50.38;100481.97;5039689;28;101743;-82
2021/04/07 06:01:28;;;;;;;;;;;;;;;6.61;50.34;100479.66;5043178;27;101584;-82
2021/04/07 06:03:54;;;;;;;;;;;;;;;6.29;50.89;100477.78;5044404;28;96731;-81
2021/04/07 06:06:20;;;;;;;;;;;;;;;6.59;50.13;100477.97;5052719;27;96553;-81
2021/04/07 06:08:46;;;;;;;;;;;;;;;6.65;50.08;100488.31;5046347;28;98401;-81
2021/04/07 06:11:12;;;;;;;;;;;;;;;6.83;50.09;100492.28;5053365;28;100024;-82
2021/04/07 06:13:38;;;;;;;;;;;;;;;6.41;50.60;100487.13;5045227;27;96589;-82
2021/04/07 06:16:05;;;;;;;;;;;;;;;6.53;50.32;100489.47;5055993;28;96601;-82
2021/04/07 06:18:31;;;;;;;;;;;;;;;6.61;50.65;100482.28;5054472;28;96680;-82
2021/04/07 06:20:57;;;;;;;;;;;;;;;6.53;50.79;100491.25;5058128;28;101820;-81
2021/04/07 06:23:24;;;;;;;;;;;;;;;6.45;50.63;100494.03;5052118;27;96698;-81
2021/04/07 06:25:50;;;;;;;;;;;;;;;6.38;50.91;100493.31;5043812;28;96999;-81
2021/04/07 06:28:16;;;;;;;;;;;;;;;7.14;49.55;100507.25;5044026;27;98370;-82
2021/04/07 06:30:43;;;;;;;;;;;;;;;6.79;49.18;100500.22;5050308;27;99886;-81
2021/04/07 06:33:14;;;;;;;;;;;;;;;6.79;49.13;100497.59;5050816;28;96672;-81
2021/04/07 06:35:41;;;;;;;;;;;;;;;6.59;49.63;100502.47;5045973;28;97918;-81
2021/04/07 06:38:07;;;;;;;;;;;;;;;6.37;51.00;100507.31;5041318;28;100207;-82
2021/04/07 06:40:33;;;;;;;;;;;;;;;6.43;50.63;100506.34;5036223;28;97995;-81
2021/04/07 06:43:00;;;;;;;;;;;;;;;6.58;50.68;100505.13;5042548;27;97831;-82
2021/04/07 06:45:26;;;;;;;;;;;;;;;7.39;48.77;100506.63;5034480;27;96923;-81
2021/04/07 06:47:59;;;;;;;;;;;;;;;7.04;48.96;100510.13;5050103;28;98293;-82
2021/04/07 06:53:17;;;;;;;;;;;;;;;6.84;49.78;100513.25;5037636;27;96773;-84
2021/04/07 06:55:43;;;;;;;;;;;;;;;7.18;49.31;100515.91;5053242;27;96840;-83
2021/04/07 06:58:12;;;;;;;;;;;;;;;7.26;48.98;100521.84;5039836;27;101471;-82
2021/04/07 07:00:43;;;;;;;;;;;;;;;7.23;48.80;100527.16;5054472;28;100965;-84
2021/04/07 07:03:14;;;;;;;;;;;;;;;7.42;48.42;100520.53;5049183;28;96923;-83
2021/04/07 07:05:43;;;;;;;;;;;;;;;7.10;50.77;100526.59;5044397;28;97149;-85
2021/04/07 07:08:12;;;;;;;;;;;;;;;6.37;53.37;100514.31;5047452;28;97949;-83
2021/04/07 07:10:40;;;;;;;;;;;;;;;6.20;54.83;100532.22;5044106;27;96941;-84
2021/04/07 07:13:07;;;;;;;;;;;;;;;5.59;57.31;100531.63;5044100;27;96913;-83
2021/04/07 07:15:34;;;;;;;;;;;;;;;6.20;57.66;100534.84;5042959;27;96978;-85
2021/04/07 07:18:00;;;;;;;;;;;;;;;6.51;56.27;100541.13;5050734;27;100633;-83
2021/04/07 07:20:27;;;;;;;;;;;;;;;6.89;54.64;100534.16;5046206;27;96765;-85
2021/04/07 07:22:56;;;;;;;;;;;;;;;7.06;54.50;100535.47;5048151;28;97096;-84
2021/04/07 07:25:22;;;;;;;;;;;;;;;7.05;52.96;100535.50;5054148;27;97291;-83
2021/04/07 07:27:52;;;;;;;;;;;;;;;7.12;52.92;100532.69;5044987;27;100493;-83
2021/04/07 07:30:21;;;;;;;;;;;;;;;7.35;51.52;100545.25;5052278;28;100049;-82
2021/04/07 07:32:47;;;;;;;;;;;;;;;7.81;50.30;100538.81;5051360;27;96765;-82
2021/04/07 07:35:13;;;;;;;;;;;;;;;7.72;50.29;100547.78;5055020;28;96794;-83
2021/04/07 07:37:40;;;;;;;;;;;;;;;7.59;50.14;100536.75;5039876;28;98703;-83
2021/04/07 07:40:09;;;;;;;;;;;;;;;7.75;49.82;100549.47;5043621;28;96643;-81
2021/04/07 07:42:35;;;;;;;;;;;;;;;7.99;49.33;100557.56;5034842;28;96999;-83
2021/04/07 07:45:02;;;;;;;;;;;;;;;8.43;48.37;100537.00;5044863;28;96803;-85
2021/04/07 07:47:37;;;;;;;;;;;;;;;8.14;48.72;100548.34;5036349;28;100649;-83
2021/04/07 07:50:04;;;;;;;;;;;;;;;8.38;48.00;100552.97;5038866;28;101445;-82
2021/04/07 07:52:31;;;;;;;;;;;;;;;7.44;50.06;100558.16;5030506;28;97119;-82
2021/04/07 07:54:57;;;;;;;;;;;;;;;7.63;49.25;100562.94;5031074;27;100300;-83
2021/04/07 07:57:24;;;;;;;;;;;;;;;7.87;48.96;100568.44;5031963;28;101195;-82
2021/04/07 07:59:56;;;;;;;;;;;;;;;7.70;48.15;100554.00;5033935;28;98127;-82
2021/04/07 08:02:26;;;;;;;;;;;;;;;7.57;48.56;100562.22;5030542;27;96806;-82
2021/04/07 08:04:52;;;;;;;;;;;;;;;7.85;47.75;100570.25;5036105;27;97692;-83
2021/04/07 08:07:18;;;;;;;;;;;;;;;7.84;47.86;100572.91;5035581;28;101039;-83
2021/04/07 08:09:44;;;;;;;;;;;;;;;8.32;46.74;100566.31;5034995;27;98144;-83
2021/04/07 08:12:10;;;;;;;;;;;;;;;8.16;47.15;100562.34;5042017;27;98393;-82
2021/04/07 08:14:39;;;;;;;;;;;;;;;8.10;46.21;100570.41;5036916;28;97113;-81
2021/04/07 08:17:05;;;;;;;;;;;;;;;8.14;45.80;100577.31;5036334;27;100567;-82
2021/04/07 08:19:33;;;;;;;;;;;;;;;8.52;45.33;100573.63;5039351;27;100319;-84
2021/04/07 08:21:58;;;;;;;;;;;;;;;8.52;45.43;100576.25;5035366;28;97149;-82
2021/04/07 08:24:26;;;;;;;;;;;;;;;9.06;44.33;100575.44;5046593;27;97406;-83
2021/04/07 08:26:52;;;;;;;;;;;;;;;9.07;43.89;100578.03;5049601;27;98192;-83
2021/04/07 08:29:18;;;;;;;;;;;;;;;8.70;44.87;100583.59;5042776;27;99911;-81
2021/04/07 08:31:48;;;;;;;;;;;;;;;8.95;43.97;100583.69;5041843;28;97549;-81
2021/04/07 08:34:15;;;;;;;;;;;;;;;8.96;44.08;100589.84;5039237;28;97025;-82
2021/04/07 08:36:41;;;;;;;;;;;;;;;9.53;43.00;100581.78;5040225;27;98004;-81
2021/04/07 08:39:09;;;;;;;;;;;;;;;8.98;44.55;100585.38;5047321;27;101074;-81
2021/04/07 08:41:34;;;;;;;;;;;;;;;8.96;43.94;100581.94;5055837;27;97126;-81
2021/04/07 08:44:06;;;;;;;;;;;;;;;8.70;44.32;100594.13;5049422;28;96872;-81
2021/04/07 08:46:44;;;;;;;;;;;;;;;8.38;44.55;100592.47;5038063;28;100066;-82
2021/04/07 08:49:31;;;;;;;;;;;;;;;8.84;43.63;100579.69;5040856;28;101278;-81
2021/04/07 08:51:58;;;;;;;;;;;;;;;9.09;43.29;100586.75;5047157;28;96846;-80
2021/04/07 08:54:24;;;;;;;;;;;;;;;8.50;43.73;100595.63;5033793;27;96895;-80
2021/04/07 08:56:53;;;;;;;;;;;;;;;9.24;42.61;100597.72;5030143;28;99147;-79
2021/04/07 08:59:22;;;;;;;;;;;;;;;8.76;43.19;100588.69;5031354;28;98122;-79
2021/04/07 09:01:48;;;;;;;;;;;;;;;8.89;42.98;100594.44;5032970;28;96687;-82
2021/04/07 09:04:18;;;;;;;;;;;;;;;9.07;42.75;100593.84;5026529;27;97720;-82
2021/04/07 09:06:57;;;;;;;;;;;;;;;9.70;41.92;100597.94;5037267;28;101945;-82
2021/04/07 09:09:23;;;;;;;;;;;;;;;10.10;40.00;100600.03;5030908;27;98058;-82
2021/04/07 09:11:50;;;;;;;;;;;;;;;11.16;38.67;100600.41;5032346;28;97145;-81
2021/04/07 09:14:17;;;;;;;;;;;;;;;10.19;39.97;100607.66;5033820;28;97397;-81
2021/04/07 09:16:43;;;;;;;;;;;;;;;10.06;39.18;100597.53;5035096;27;99155;-80
2021/04/07 09:19:35;;;;;;;;;;;;;;;10.42;38.95;100604.19;5033217;27;97685;-81
2021/04/07 09:22:06;;;;;;;;;;;;;;;9.30;40.20;100616.00;5040334;28;98548;-80
2021/04/07 09:24:35;;;;;;;;;;;;;;;9.08;40.22;100602.63;5035606;28;96841;-80
2021/04/07 09:27:01;;;;;;;;;;;;;;;9.35;39.94;100620.19;5033756;28;98401;-81
2021/04/07 09:29:27;;;;;;;;;;;;;;;8.73;40.43;100620.38;5038205;27;98003;-82
2021/04/07 09:31:53;;;;;;;;;;;;;;;8.88;41.19;100618.19;5039390;27;97191;-82
2021/04/07 09:34:22;;;;;;;;;;;;;;;9.05;39.93;100616.78;5037448;28;97164;-83
2021/04/07 09:36:49;;;;;;;;;;;;;;;9.13;39.42;100630.56;5033823;27;99262;-82
2021/04/07 09:39:17;;;;;;;;;;;;;;;9.13;38.79;100609.47;5039614;27;99935;-80
2021/04/07 09:41:44;;;;;;;;;;;;;;;9.06;38.45;100615.84;5035308;28;97084;-81
2021/04/07 09:44:11;;;;;;;;;;;;;;;9.61;37.80;100614.06;5038738;27;96837;-81
2021/04/07 09:46:37;;;;;;;;;;;;;;;9.74;37.18;100614.50;5038009;27;100816;-82
2021/04/07 09:49:04;;;;;;;;;;;;;;;9.53;38.16;100626.63;5036241;28;98102;-81
2021/04/07 09:51:32;;;;;;;;;;;;;;;9.46;38.34;100623.34;5029862;28;97339;-82
2021/04/07 09:54:11;;;;;;;;;;;;;;;10.33;36.61;100618.56;5039345;28;99223;-82
2021/04/07 09:56:47;;;;;;;;;;;;;;;9.90;36.19;100616.59;5040983;27;100183;-82
2021/04/07 09:59:13;;;;;;;;;;;;;;;9.83;36.12;100619.47;5052624;28;99786;-83
2021/04/07 10:01:39;;;;;;;;;;;;;;;10.43;35.14;100619.13;5049119;27;96788;-81
2021/04/07 10:04:06;;;;;;;;;;;;;;;10.64;35.77;100615.66;5043577;27;96817;-82
2021/04/07 10:06:33;;;;;;;;;;;;;;;10.15;35.14;100608.66;5041646;27;97775;-81
2021/04/07 10:09:00;;;;;;;;;;;;;;;9.87;35.43;100626.38;5036577;27;102356;-81
2021/04/07 10:11:27;;;;;;;;;;;;;;;9.54;36.85;100625.72;5039184;28;96889;-81
2021/04/07 10:13:54;;;;;;;;;;;;;;;10.23;35.89;100626.91;5038478;27;97126;-81
2021/04/07 10:16:21;;;;;;;;;;;;;;;10.43;35.37;100629.69;5031875;27;98194;-81
2021/04/07 10:18:47;;;;;;;;;;;;;;;9.81;35.31;100630.09;5027031;28;101336;-81
2021/04/07 10:21:16;;;;;;;;;;;;;;;10.36;34.74;100630.81;5039551;27;96899;-81
2021/04/07 10:23:55;;;;;;;;;;;;;;;10.38;34.86;100623.69;5026752;28;96889;-82
2021/04/07 10:26:21;;;;;;;;;;;;;;;10.28;35.33;100625.81;5039288;28;100877;-80
2021/04/07 10:28:54;;;;;;;;;;;;;;;10.78;34.44;100621.28;5040448;28;98993;-81
2021/04/07 10:31:20;;;;;;;;;;;;;;;10.91;34.23;100631.38;5039179;28;97201;-81
2021/04/07 10:33:46;;;;;;;;;;;;;;;10.16;34.87;100628.88;5038212;28;96786;-82
2021/04/07 10:36:12;;;;;;;;;;;;;;;9.82;35.30;100631.81;5034358;28;97928;-83
2021/04/07 10:38:39;;;;;;;;;;;;;;;9.92;34.61;100637.63;5041328;27;98359;-81
2021/04/07 10:41:07;;;;;;;;;;;;;;;9.75;35.54;100635.56;5035690;28;96814;-84
2021/04/07 10:43:34;;;;;;;;;;;;;;;10.39;34.20;100635.97;5032603;28;97531;-83
2021/04/07 10:46:01;;;;;;;;;;;;;;;10.54;34.28;100635.44;5033492;28;97697;-82
2021/04/07 10:48:28;;;;;;;;;;;;;;;9.98;33.60;100647.97;5041259;27;100384;-82
2021/04/07 10:50:54;;;;;;;;;;;;;;;9.72;35.27;100640.94;5043722;28;96696;-80
2021/04/07 10:53:31;;;;;;;;;;;;;;;10.46;34.96;100645.41;5038766;28;97077;-82
2021/04/07 10:55:57;;;;;;;;;;;;;;;9.67;36.36;100653.44;5038311;28;101494;-83
2021/04/07 10:58:28;;;;;;;;;;;;;;;9.63;36.09;100656.22;5038747;27;101711;-81
2021/04/07 11:00:54;;;;;;;;;;;;;;;9.98;35.03;100647.97;5033096;27;96951;-82
2021/04/07 11:03:29;;;;;;;;;;;;;;;9.49;36.14;100654.91;5042347;27;96902;-82
2021/04/07 11:05:55;;;;;;;;;;;;;;;9.37;36.44;100657.06;5038518;28;99271;-84
2021/04/07 11:08:21;;;;;;;;;;;;;;;9.74;35.31;100649.69;5025146;28;97014;-82
2021/04/07 11:10:48;;;;;;;;;;;;;;;9.52;35.22;100646.00;5035456;28;96768;-82
2021/04/07 11:13:15;;;;;;;;;;;;;;;9.95;35.38;100663.94;5033845;27;96762;-81
2021/04/07 11:15:46;;;;;;;;;;;;;;;10.32;35.03;100669.69;5037865;27;97911;-81
2021/04/07 11:18:12;;;;;;;;;;;;;;;9.93;35.42;100665.75;5036223;28;97745;-83
2021/04/07 11:20:39;;;;;;;;;;;;;;;9.90;36.27;100676.44;5032112;28;97099;-83
2021/04/07 11:23:06;;;;;;;;;;;;;;;10.12;36.21;100671.25;5037264;28;97009;-83
2021/04/07 11:25:33;;;;;;;;;;;;;;;9.64;36.62;100668.50;5039939;28;99446;-84
2021/04/07 11:28:00;;;;;;;;;;;;;;;9.85;36.23;100673.91;5035865;28;98839;-82
2021/04/07 11:30:27;;;;;;;;;;;;;;;9.95;36.87;100674.47;5032073;28;96768;-81
2021/04/07 11:32:56;;;;;;;;;;;;;;;10.28;35.78;100669.84;5038655;28;97832;-82
2021/04/07 11:35:26;;;;;;;;;;;;;;;10.11;36.30;100674.84;5030109;27;98896;-80
2021/04/07 11:37:54;;;;;;;;;;;;;;;10.75;35.48;100671.63;5040062;28;98138;-82
2021/04/07 11:40:39;;;;;;;;;;;;;;;10.77;35.29;100666.25;5037850;27;97248;-81
2021/04/07 11:43:08;;;;;;;;;;;;;;;11.42;34.29;100669.00;5033396;28;96743;-82
2021/04/07 11:45:35;;;;;;;;;;;;;;;10.48;35.04;100664.72;5037036;28;98239;-83
2021/04/07 11:48:01;;;;;;;;;;;;;;;10.19;36.13;100668.38;5037786;28;98108;-82
2021/04/07 11:50:28;;;;;;;;;;;;;;;10.23;36.36;100661.22;5037234;28;97050;-83
2021/04/07 11:52:54;;;;;;;;;;;;;;;9.96;36.15;100670.94;5033242;27;97020;-81
2021/04/07 11:55:21;;;;;;;;;;;;;;;10.15;36.25;100665.88;5034374;27;99605;-81
2021/04/07 11:58:02;;;;;;;;;;;;;;;10.21;35.75;100668.34;5046455;28;97857;-82
2021/04/07 12:00:28;;;;;;;;;;;;;;;9.36;37.15;100668.53;5029257;28;96858;-81
2021/04/07 12:02:54;;;;;;;;;;;;;;;10.02;36.72;100672.50;5034886;28;97226;-81
2021/04/07 12:05:24;;;;;;;;;;;;;;;10.90;35.47;100669.31;5031413;27;98155;-82
2021/04/07 12:07:50;;;;;;;;;;;;;;;10.84;34.59;100672.19;5028757;28;100279;-81
2021/04/07 12:10:17;;;;;;;;;;;;;;;10.32;34.81;100663.53;5033494;28;97145;-82
2021/04/07 12:12:42;;;;;;;;;;;;;;;10.81;34.46;100674.97;5038519;27;96788;-81
2021/04/07 12:15:09;;;;;;;;;;;;;;;11.09;34.21;100665.06;5043567;27;101656;-81
2021/04/07 12:17:35;;;;;;;;;;;;;;;10.87;34.50;100661.50;5047700;27;97711;-80
2021/04/07 12:20:05;;;;;;;;;;;;;;;10.93;34.45;100664.78;5042581;27;96939;-81
2021/04/07 12:22:31;;;;;;;;;;;;;;;11.07;33.82;100661.59;5037939;28;97303;-81
2021/04/07 12:24:57;;;;;;;;;;;;;;;11.16;33.88;100664.75;5035746;28;98277;-82
2021/04/07 12:27:23;;;;;;;;;;;;;;;10.78;34.64;100654.78;5029487;27;98276;-82
2021/04/07 12:29:49;;;;;;;;;;;;;;;10.25;35.71;100662.03;5030526;28;97272;-81
2021/04/07 12:32:15;;;;;;;;;;;;;;;10.67;35.03;100660.47;5030234;28;97592;-81
2021/04/07 12:34:41;;;;;;;;;;;;;;;10.45;35.49;100670.09;5039695;28;99061;-81
2021/04/07 12:37:08;;;;;;;;;;;;;;;10.15;36.01;100660.59;5041090;28;97697;-82
2021/04/07 12:39:38;;;;;;;;;;;;;;;10.37;35.80;100657.16;5041828;28;96783;-82
2021/04/07 12:42:07;;;;;;;;;;;;;;;10.71;34.95;100655.91;5034696;28;96984;-82
2021/04/07 12:44:36;;;;;;;;;;;;;;;11.44;34.03;100659.22;5034739;28;100254;-82